Orkney, United Kingdom
Current Conditions -  °F | °C
As of 5:50 PM on Tuesday 21 Oct 2014 (Local Time) from EGPA Reporting Station
Rain Showers Rain Showers  
Wind Chill: 35°   Ceiling: 4800
Heat Index: 45°   Visibility: 6mi
Dew Point: 34°   Wind: 30mph
Humidity: 66%   Direction: 300°WNW
Pressure: 29.5"   Gusts: NA
Location:  59.16°N, 2.77°W
Report Text: EGPA 211650Z 30026KT 9999 VCSH FEW010 SCT034 BKN048 07/01 Q0999
Loading
Personal Weather Stations






























Interactive Weather Map
Tropical Storm Tracking
New forecast layout! Learn more

10-Day Weather Forecast

Advertisements
Track Severe Weather on mobile